Time;durP1;ratioP1;P1;durP2;ratioP2;P2;SDS_P1;SDS_P2;PMS_P1;PMS_P2;Temp;Humidity;BMP_temperature;BMP_pressure;BME280_temperature;BME280_humidity;BME280_pressure;Samples;Min_cycle;Max_cycle;Signal;HPM_P1;HPM_P2
2022/03/05 00:01:02;;;;;;;1.73;1.63;;;3.00;90.20;;;;;;5021473;28;20464;-72
2022/03/05 00:03:31;;;;;;;1.60;1.50;;;3.00;90.50;;;;;;5023225;28;20951;-73
2022/03/05 00:05:57;;;;;;;1.97;1.87;;;3.00;90.60;;;;;;5022796;28;20483;-72
2022/03/05 00:08:24;;;;;;;1.60;1.50;;;2.90;91.00;;;;;;5023510;28;20891;-73
2022/03/05 00:10:51;;;;;;;1.50;1.40;;;2.90;91.00;;;;;;5020793;28;20569;-73
2022/03/05 00:13:18;;;;;;;1.53;1.40;;;2.90;91.20;;;;;;5021712;28;20476;-71
2022/03/05 00:15:46;;;;;;;5.13;4.80;;;2.90;91.00;;;;;;5022723;28;20471;-73
2022/03/05 00:18:14;;;;;;;1.60;1.50;;;2.80;91.30;;;;;;5011454;28;20494;-73
2022/03/05 00:20:44;;;;;;;1.50;1.40;;;2.80;91.10;;;;;;5020088;28;20501;-75
2022/03/05 00:23:11;;;;;;;1.53;1.40;;;2.80;91.50;;;;;;5021808;28;20467;-72
2022/03/05 00:25:38;;;;;;;1.60;1.50;;;2.80;91.60;;;;;;5023379;28;20491;-75
2022/03/05 00:28:05;;;;;;;1.90;1.80;;;2.70;92.00;;;;;;5022439;28;20463;-73
2022/03/05 00:30:32;;;;;;;1.63;1.53;;;2.70;91.00;;;;;;5021487;28;20533;-73
2022/03/05 00:32:59;;;;;;;1.60;1.47;;;2.70;91.70;;;;;;5021290;28;20478;-72
2022/03/05 00:35:26;;;;;;;1.53;1.40;;;2.60;92.50;;;;;;5023239;28;20487;-74
2022/03/05 00:37:54;;;;;;;3.20;3.00;;;2.60;92.80;;;;;;5024972;28;20462;-73
2022/03/05 00:40:21;;;;;;;1.73;1.63;;;2.60;92.70;;;;;;5024417;28;20582;-74
2022/03/05 00:42:48;;;;;;;1.60;1.50;;;2.60;93.10;;;;;;5026184;28;20559;-74
2022/03/05 00:45:15;;;;;;;1.70;1.60;;;2.50;93.10;;;;;;5025320;28;20990;-73
2022/03/05 00:47:42;;;;;;;1.70;1.60;;;2.50;93.70;;;;;;5025085;28;20482;-71
2022/03/05 00:50:09;;;;;;;1.60;1.50;;;2.40;93.20;;;;;;5024065;28;20479;-74
2022/03/05 00:52:37;;;;;;;1.57;1.40;;;2.40;93.40;;;;;;5025321;28;21174;-72
2022/03/05 00:55:07;;;;;;;1.70;1.60;;;2.40;93.40;;;;;;5026316;28;20524;-76
2022/03/05 00:57:34;;;;;;;1.70;1.60;;;2.30;94.00;;;;;;5025069;28;20790;-74
2022/03/05 01:00:01;;;;;;;1.60;1.50;;;2.30;93.90;;;;;;5023027;28;20491;-73
2022/03/05 01:02:28;;;;;;;1.60;1.50;;;2.20;93.60;;;;;;5022667;28;20524;-74
2022/03/05 01:04:55;;;;;;;1.70;1.60;;;2.20;94.50;;;;;;5030131;28;20483;-74
2022/03/05 01:07:21;;;;;;;1.60;1.40;;;2.20;94.90;;;;;;5028565;28;20475;-75
2022/03/05 01:09:48;;;;;;;1.63;1.53;;;2.10;95.20;;;;;;5030085;28;20487;-73
2022/03/05 01:12:17;;;;;;;1.50;1.40;;;2.10;95.40;;;;;;5024555;28;20455;-73
2022/03/05 01:14:44;;;;;;;1.57;1.40;;;2.00;95.40;;;;;;5031967;28;20533;-72
2022/03/05 01:17:11;;;;;;;1.97;1.87;;;2.00;95.50;;;;;;5028309;28;20455;-72
2022/03/05 01:19:37;;;;;;;1.60;1.50;;;2.00;95.70;;;;;;5050682;22;20495;-70
2022/03/05 01:22:04;;;;;;;3.30;3.10;;;2.00;95.50;;;;;;5025300;28;20463;-71
2022/03/05 01:24:32;;;;;;;1.60;1.50;;;2.00;95.90;;;;;;5023821;28;20747;-70
2022/03/05 01:26:58;;;;;;;1.57;1.47;;;1.90;96.30;;;;;;5031851;28;20491;-70
2022/03/05 01:29:26;;;;;;;1.60;1.50;;;1.90;96.60;;;;;;5027196;28;20491;-71
2022/03/05 01:31:53;;;;;;;4.50;4.20;;;1.90;97.00;;;;;;5030854;28;20470;-70
2022/03/05 01:34:20;;;;;;;1.50;1.40;;;1.90;97.30;;;;;;5028211;28;20840;-71
2022/03/05 01:36:47;;;;;;;1.60;1.50;;;1.90;97.10;;;;;;5030057;28;20467;-70
2022/03/05 01:39:14;;;;;;;1.60;1.50;;;1.90;97.00;;;;;;5027985;28;20486;-72
2022/03/05 01:41:41;;;;;;;1.70;1.60;;;1.90;96.90;;;;;;5027556;28;20891;-70
2022/03/05 01:44:08;;;;;;;1.77;1.67;;;1.90;97.00;;;;;;5028152;28;20467;-70
2022/03/05 01:46:39;;;;;;;18.03;8.40;;;1.80;97.40;;;;;;5027684;28;20479;-70
2022/03/05 01:49:09;;;;;;;1.60;1.50;;;1.90;97.00;;;;;;5028267;28;21011;-70
2022/03/05 01:51:36;;;;;;;1.80;1.70;;;1.80;97.30;;;;;;5027850;28;20978;-70
2022/03/05 01:54:03;;;;;;;1.60;1.50;;;1.80;97.90;;;;;;5029076;28;20994;-71
2022/03/05 01:56:31;;;;;;;1.60;1.50;;;1.80;97.90;;;;;;5035678;28;20455;-70
2022/03/05 01:58:59;;;;;;;1.60;1.50;;;1.80;97.70;;;;;;5030025;28;20861;-70
2022/03/05 02:01:27;;;;;;;2.47;2.30;;;1.80;97.90;;;;;;5033182;28;20469;-70
2022/03/05 02:03:56;;;;;;;4.37;3.97;;;1.70;97.60;;;;;;5029686;28;20467;-70
2022/03/05 02:06:24;;;;;;;2.97;2.73;;;1.70;97.70;;;;;;5024412;28;20493;-70
2022/03/05 02:08:51;;;;;;;1.60;1.50;;;1.70;98.10;;;;;;5023128;28;20627;-70
2022/03/05 02:11:18;;;;;;;3.30;3.10;;;1.70;98.20;;;;;;5024878;28;20628;-70
2022/03/05 02:13:45;;;;;;;2.73;2.57;;;1.70;98.20;;;;;;5023508;28;20809;-71
2022/03/05 02:16:12;;;;;;;1.57;1.47;;;1.70;98.20;;;;;;5023064;28;21452;-71
2022/03/05 02:18:39;;;;;;;1.57;1.40;;;1.70;98.20;;;;;;5041765;28;20478;-70
2022/03/05 02:21:08;;;;;;;1.70;1.60;;;1.70;98.20;;;;;;5027760;28;20474;-70
2022/03/05 02:23:34;;;;;;;1.80;1.70;;;1.60;98.20;;;;;;5020236;28;20463;-70
2022/03/05 02:26:03;;;;;;;1.70;1.60;;;1.60;98.20;;;;;;5027389;28;20842;-70
2022/03/05 02:28:31;;;;;;;2.00;1.90;;;1.60;98.20;;;;;;5021305;28;20463;-71
2022/03/05 02:30:58;;;;;;;1.60;1.50;;;1.60;98.20;;;;;;5025251;28;20459;-70
2022/03/05 02:33:25;;;;;;;1.60;1.50;;;1.50;98.20;;;;;;5029816;28;20459;-70
2022/03/05 02:35:52;;;;;;;1.70;1.60;;;1.50;98.20;;;;;;5035476;28;20466;-70
2022/03/05 02:38:22;;;;;;;1.60;1.50;;;1.50;98.20;;;;;;5016656;28;20467;-70
2022/03/05 02:40:51;;;;;;;1.70;1.60;;;1.50;98.20;;;;;;5025815;28;20466;-70
2022/03/05 02:43:18;;;;;;;2.03;1.93;;;1.50;98.20;;;;;;5024804;28;20466;-70
2022/03/05 02:45:45;;;;;;;1.80;1.70;;;1.50;98.20;;;;;;5028173;28;20475;-70
2022/03/05 02:48:14;;;;;;;1.60;1.50;;;1.50;98.20;;;;;;5028610;28;20491;-70
2022/03/05 02:50:42;;;;;;;1.60;1.50;;;1.50;98.20;;;;;;5026096;28;20486;-69
2022/03/05 02:53:09;;;;;;;1.60;1.50;;;1.50;98.20;;;;;;5029911;28;20890;-69
2022/03/05 02:55:39;;;;;;;1.60;1.40;;;1.40;98.20;;;;;;5029349;28;20463;-70
2022/03/05 02:58:06;;;;;;;1.80;1.70;;;1.40;98.20;;;;;;5029761;28;20474;-69
2022/03/05 03:00:34;;;;;;;1.57;1.47;;;1.40;98.20;;;;;;5021059;28;20926;-69
2022/03/05 03:03:01;;;;;;;1.60;1.50;;;1.40;98.20;;;;;;5032078;28;20459;-69
2022/03/05 03:05:28;;;;;;;3.40;3.20;;;1.40;98.20;;;;;;5028914;28;20499;-69
2022/03/05 03:07:55;;;;;;;1.60;1.50;;;1.40;98.20;;;;;;5028054;28;20491;-70
2022/03/05 03:10:22;;;;;;;1.60;1.50;;;1.40;98.20;;;;;;5027217;28;20489;-69
2022/03/05 03:12:50;;;;;;;1.60;1.50;;;1.40;98.20;;;;;;5028230;28;20556;-69
2022/03/05 03:15:17;;;;;;;1.70;1.60;;;1.30;98.20;;;;;;5028526;28;20986;-69
2022/03/05 03:17:46;;;;;;;1.90;1.80;;;1.30;98.20;;;;;;5025045;28;20463;-69
2022/03/05 03:20:15;;;;;;;1.60;1.50;;;1.30;98.20;;;;;;5025365;28;20491;-70
2022/03/05 03:22:42;;;;;;;1.67;1.57;;;1.30;98.20;;;;;;5028030;28;20943;-69
2022/03/05 03:25:10;;;;;;;2.30;2.10;;;1.30;98.20;;;;;;5027599;28;20459;-69
2022/03/05 03:27:36;;;;;;;1.70;1.60;;;1.30;98.20;;;;;;5025374;28;21058;-68
2022/03/05 03:30:06;;;;;;;1.60;1.50;;;1.20;98.20;;;;;;5027761;28;20483;-69
2022/03/05 03:32:34;;;;;;;1.60;1.50;;;1.20;98.20;;;;;;5028140;28;20861;-69
2022/03/05 03:35:00;;;;;;;1.60;1.50;;;1.20;98.20;;;;;;5028306;28;20995;-69
2022/03/05 03:37:29;;;;;;;1.80;1.70;;;1.20;98.20;;;;;;5034687;28;20460;-69
2022/03/05 03:39:56;;;;;;;1.70;1.60;;;1.20;98.20;;;;;;5027657;28;20510;-69
2022/03/05 03:42:23;;;;;;;1.60;1.50;;;1.20;98.20;;;;;;5031919;28;20459;-69
2022/03/05 03:44:50;;;;;;;1.87;1.67;;;1.20;98.20;;;;;;5028614;28;20463;-69
2022/03/05 03:47:19;;;;;;;1.60;1.50;;;1.20;98.20;;;;;;5031153;28;20486;-69
2022/03/05 03:49:46;;;;;;;1.77;1.67;;;1.10;98.20;;;;;;5027444;28;20502;-69
2022/03/05 03:52:14;;;;;;;1.83;1.73;;;1.10;98.20;;;;;;5029761;28;20467;-69
2022/03/05 03:54:41;;;;;;;1.80;1.70;;;1.10;98.20;;;;;;5028251;28;20534;-69
2022/03/05 03:57:07;;;;;;;1.80;1.70;;;1.10;98.20;;;;;;5029015;28;20459;-69
2022/03/05 03:59:34;;;;;;;17.40;16.00;;;1.10;98.20;;;;;;5027651;28;21011;-69
2022/03/05 04:02:02;;;;;;;1.70;1.60;;;1.10;98.20;;;;;;5028930;28;20471;-69
2022/03/05 04:04:30;;;;;;;1.70;1.60;;;1.10;98.20;;;;;;5028488;28;20564;-69
2022/03/05 04:09:42;;;;;;;2.43;2.27;;;1.10;98.20;;;;;;5027237;28;20486;-69
2022/03/05 04:12:09;;;;;;;1.70;1.60;;;1.10;98.20;;;;;;5036504;28;21028;-69
2022/03/05 04:14:38;;;;;;;1.67;1.57;;;1.10;98.20;;;;;;5030531;28;20467;-69
2022/03/05 04:17:04;;;;;;;3.73;3.43;;;1.10;98.20;;;;;;5031362;28;20517;-69
2022/03/05 04:19:33;;;;;;;1.70;1.60;;;1.00;98.20;;;;;;5024699;28;20490;-69
2022/03/05 04:21:59;;;;;;;1.77;1.67;;;1.00;98.20;;;;;;5032143;28;20459;-69
2022/03/05 04:24:26;;;;;;;1.70;1.60;;;1.00;98.20;;;;;;5032119;28;20691;-69
2022/03/05 04:26:53;;;;;;;1.60;1.50;;;1.00;98.20;;;;;;5031680;28;20494;-69
2022/03/05 04:29:20;;;;;;;1.70;1.60;;;1.00;98.20;;;;;;5036376;28;20487;-70
2022/03/05 04:31:47;;;;;;;1.80;1.70;;;1.00;98.20;;;;;;5029328;28;20463;-69
2022/03/05 04:34:13;;;;;;;3.20;3.00;;;1.00;98.20;;;;;;5031668;28;20463;-69
2022/03/05 04:36:42;;;;;;;1.70;1.60;;;1.00;98.20;;;;;;5028971;28;20463;-69
2022/03/05 04:39:09;;;;;;;1.80;1.70;;;1.00;98.20;;;;;;5028033;28;20487;-70
2022/03/05 04:41:36;;;;;;;1.60;1.50;;;1.10;98.20;;;;;;5030516;28;20521;-69
2022/03/05 04:44:02;;;;;;;1.63;1.53;;;1.10;98.20;;;;;;5031872;28;20471;-70
2022/03/05 04:46:29;;;;;;;4.63;2.60;;;1.00;98.20;;;;;;5030753;28;20467;-70
2022/03/05 04:48:56;;;;;;;1.60;1.50;;;1.00;98.20;;;;;;5028277;28;20498;-69
2022/03/05 04:51:23;;;;;;;7.80;7.17;;;1.00;98.20;;;;;;5029579;28;20969;-70
2022/03/05 04:53:51;;;;;;;1.60;1.50;;;1.00;98.20;;;;;;5029718;28;20560;-69
2022/03/05 04:56:18;;;;;;;1.67;1.57;;;1.00;98.20;;;;;;5029908;28;20986;-69
2022/03/05 04:58:45;;;;;;;1.63;1.53;;;1.00;98.20;;;;;;5030300;28;20490;-69
2022/03/05 05:01:12;;;;;;;1.70;1.60;;;1.00;98.20;;;;;;5028782;28;20463;-69
2022/03/05 05:03:38;;;;;;;2.93;2.73;;;1.00;98.20;;;;;;5030939;28;20459;-69
2022/03/05 05:06:06;;;;;;;1.70;1.60;;;1.00;98.20;;;;;;5030209;28;20463;-69
2022/03/05 05:08:33;;;;;;;1.60;1.50;;;1.10;98.20;;;;;;5029925;28;20486;-70
2022/03/05 05:11:01;;;;;;;1.60;1.50;;;1.10;98.20;;;;;;5030264;28;20470;-69
2022/03/05 05:13:28;;;;;;;1.60;1.50;;;1.10;98.20;;;;;;5033219;28;20464;-69
2022/03/05 05:15:56;;;;;;;1.70;1.60;;;1.10;98.20;;;;;;5030861;28;20459;-69
2022/03/05 05:18:23;;;;;;;1.90;1.80;;;1.10;98.20;;;;;;5031097;28;20940;-69
2022/03/05 05:20:50;;;;;;;1.60;1.50;;;1.00;98.20;;;;;;5028530;28;20455;-69
2022/03/05 05:23:17;;;;;;;1.70;1.60;;;1.10;98.20;;;;;;5023018;28;21089;-69
2022/03/05 05:25:45;;;;;;;1.87;1.77;;;1.10;98.20;;;;;;5029957;28;20917;-69
2022/03/05 05:28:13;;;;;;;2.47;2.23;;;1.00;98.20;;;;;;5031437;28;20625;-69
2022/03/05 05:30:40;;;;;;;1.60;1.50;;;1.10;98.20;;;;;;5029094;28;20501;-69
2022/03/05 05:33:07;;;;;;;1.67;1.57;;;1.00;98.20;;;;;;5030362;28;20470;-69
2022/03/05 05:35:34;;;;;;;1.60;1.50;;;1.00;98.20;;;;;;5030820;28;20550;-69
2022/03/05 05:38:00;;;;;;;1.60;1.50;;;1.00;98.20;;;;;;5036288;28;20459;-69
2022/03/05 05:40:27;;;;;;;4.67;4.37;;;1.00;98.20;;;;;;5027984;28;20491;-69
2022/03/05 05:42:54;;;;;;;1.70;1.60;;;1.00;98.20;;;;;;5035706;28;20471;-69
2022/03/05 05:45:23;;;;;;;1.70;1.60;;;1.00;98.20;;;;;;5030974;28;20468;-69
2022/03/05 05:47:50;;;;;;;1.60;1.50;;;1.10;98.20;;;;;;5032042;28;20478;-69
2022/03/05 05:50:16;;;;;;;1.60;1.50;;;1.10;98.20;;;;;;5027592;28;20490;-70
2022/03/05 05:52:43;;;;;;;1.60;1.50;;;1.10;98.20;;;;;;5030543;28;21002;-70
2022/03/05 05:55:10;;;;;;;1.60;1.50;;;1.10;98.20;;;;;;5029384;28;20470;-71
2022/03/05 05:57:37;;;;;;;1.60;1.50;;;1.10;98.20;;;;;;5030342;28;20818;-70
2022/03/05 06:00:04;;;;;;;1.60;1.50;;;1.10;98.20;;;;;;5028849;28;20980;-70
2022/03/05 06:02:33;;;;;;;1.70;1.60;;;1.10;98.20;;;;;;5031902;28;20463;-70
2022/03/05 06:05:00;;;;;;;1.70;1.60;;;1.10;98.20;;;;;;5029627;28;20464;-71
2022/03/05 06:07:27;;;;;;;1.50;1.40;;;1.10;98.20;;;;;;5028256;28;20491;-70
2022/03/05 06:09:53;;;;;;;1.60;1.50;;;1.10;98.20;;;;;;5027723;28;21161;-70
2022/03/05 06:12:20;;;;;;;2.47;2.27;;;1.10;98.20;;;;;;5029808;28;20467;-70
2022/03/05 06:14:47;;;;;;;1.60;1.50;;;1.10;98.20;;;;;;5030511;28;20852;-70
2022/03/05 06:17:13;;;;;;;1.70;1.60;;;1.10;98.20;;;;;;5035453;28;20463;-70
2022/03/05 06:19:44;;;;;;;1.60;1.50;;;1.10;98.20;;;;;;5026158;28;20852;-71
2022/03/05 06:22:11;;;;;;;2.33;2.17;;;1.00;98.20;;;;;;5028771;28;20978;-70
2022/03/05 06:24:37;;;;;;;1.80;1.70;;;1.10;98.20;;;;;;5028831;28;20470;-70
2022/03/05 06:27:04;;;;;;;1.80;1.70;;;1.10;98.20;;;;;;5025054;28;20490;-71
2022/03/05 06:29:31;;;;;;;1.70;1.60;;;1.00;98.20;;;;;;5027703;28;20480;-70
2022/03/05 06:31:59;;;;;;;1.70;1.60;;;1.00;98.20;;;;;;5029555;28;20471;-70
2022/03/05 06:34:27;;;;;;;1.70;1.60;;;1.00;98.20;;;;;;5028639;28;20489;-71
2022/03/05 06:36:56;;;;;;;1.80;1.70;;;1.10;98.20;;;;;;5031688;28;20463;-70
2022/03/05 06:39:23;;;;;;;1.60;1.50;;;1.10;98.20;;;;;;5028306;28;20479;-70
2022/03/05 06:41:50;;;;;;;1.60;1.50;;;1.10;98.20;;;;;;5032050;28;20467;-70
2022/03/05 06:44:17;;;;;;;1.70;1.60;;;1.10;98.20;;;;;;5027343;28;20459;-70
2022/03/05 06:46:44;;;;;;;1.60;1.50;;;1.10;98.20;;;;;;5029089;28;20463;-70
2022/03/05 06:49:10;;;;;;;1.80;1.70;;;1.10;98.20;;;;;;5027596;28;20479;-72
2022/03/05 06:51:37;;;;;;;1.60;1.50;;;1.20;98.20;;;;;;5030082;28;20960;-71
2022/03/05 06:54:05;;;;;;;1.60;1.50;;;1.30;98.20;;;;;;5027576;28;20471;-70
2022/03/05 06:56:32;;;;;;;1.70;1.60;;;1.30;98.20;;;;;;5029588;28;20474;-70
2022/03/05 06:58:59;;;;;;;55.07;14.27;;;1.40;98.20;;;;;;5027770;28;20861;-71
2022/03/05 07:01:26;;;;;;;1.70;1.60;;;1.40;98.20;;;;;;5026565;28;20474;-72
2022/03/05 07:03:53;;;;;;;1.90;1.80;;;1.50;98.20;;;;;;5028501;28;20463;-73
2022/03/05 07:06:20;;;;;;;1.60;1.50;;;1.60;98.20;;;;;;5032754;28;20551;-72
2022/03/05 07:08:46;;;;;;;1.60;1.40;;;1.60;98.20;;;;;;5031377;28;20588;-71
2022/03/05 07:11:15;;;;;;;1.60;1.50;;;1.70;98.20;;;;;;5030837;28;20473;-75
2022/03/05 07:13:44;;;;;;;1.80;1.70;;;1.70;98.20;;;;;;5028775;28;20478;-69
2022/03/05 07:16:12;;;;;;;1.60;1.50;;;1.70;98.20;;;;;;5027532;28;20479;-69
2022/03/05 07:18:40;;;;;;;1.80;1.70;;;1.80;98.10;;;;;;5030473;28;20467;-69
2022/03/05 07:21:07;;;;;;;1.60;1.50;;;1.90;97.90;;;;;;5032096;28;20474;-69
2022/03/05 07:23:33;;;;;;;1.70;1.60;;;2.00;97.50;;;;;;5042954;22;20506;-71
2022/03/05 07:26:00;;;;;;;1.73;1.63;;;2.10;97.40;;;;;;5027682;28;20455;-71
2022/03/05 07:28:28;;;;;;;1.70;1.60;;;2.20;96.90;;;;;;5026942;28;21018;-72
2022/03/05 07:30:55;;;;;;;1.80;1.70;;;2.30;96.80;;;;;;5027085;28;20471;-74
2022/03/05 07:33:22;;;;;;;1.63;1.53;;;2.40;96.60;;;;;;5027533;28;20495;-71
2022/03/05 07:35:49;;;;;;;1.67;1.57;;;2.50;96.40;;;;;;5027704;28;20475;-75
2022/03/05 07:38:16;;;;;;;1.90;1.80;;;2.60;95.60;;;;;;5028087;28;20467;-74
2022/03/05 07:40:43;;;;;;;1.60;1.50;;;2.70;95.90;;;;;;5027084;28;20474;-75
2022/03/05 07:43:12;;;;;;;1.87;1.77;;;2.80;95.20;;;;;;5027450;28;20487;-75
2022/03/05 07:45:40;;;;;;;1.60;1.40;;;2.90;94.90;;;;;;5028163;28;20558;-73
2022/03/05 07:48:07;;;;;;;1.60;1.50;;;3.00;94.70;;;;;;5026740;28;21098;-73
2022/03/05 07:50:34;;;;;;;1.60;1.40;;;3.10;94.60;;;;;;5021925;28;20467;-73
2022/03/05 07:53:01;;;;;;;1.60;1.40;;;3.20;94.40;;;;;;5027711;28;20816;-75
2022/03/05 07:55:27;;;;;;;1.60;1.40;;;3.30;94.10;;;;;;5027389;28;20467;-76
2022/03/05 07:57:54;;;;;;;1.60;1.40;;;3.40;93.80;;;;;;5031221;28;21006;-73
2022/03/05 08:00:21;;;;;;;1.60;1.50;;;3.60;93.40;;;;;;5029194;28;20498;-71
2022/03/05 08:02:49;;;;;;;1.53;1.40;;;3.60;93.10;;;;;;5027718;28;20489;-74
2022/03/05 08:05:16;;;;;;;1.70;1.60;;;3.70;92.60;;;;;;5026766;28;21003;-73
2022/03/05 08:07:43;;;;;;;1.50;1.40;;;3.80;92.60;;;;;;5027683;28;20474;-73
2022/03/05 08:10:10;;;;;;;1.60;1.40;;;4.00;92.30;;;;;;5027104;28;20471;-75
2022/03/05 08:12:37;;;;;;;1.53;1.33;;;4.20;91.60;;;;;;5027685;28;20475;-77
2022/03/05 08:15:06;;;;;;;1.83;1.73;;;4.30;91.20;;;;;;5027815;28;20465;-74
2022/03/05 08:17:32;;;;;;;1.53;1.40;;;4.50;91.00;;;;;;5027999;28;20517;-74
2022/03/05 08:20:01;;;;;;;1.57;1.30;;;4.60;90.40;;;;;;5026226;28;20456;-71
2022/03/05 08:22:27;;;;;;;1.60;1.40;;;4.70;89.90;;;;;;5026400;28;20494;-71
2022/03/05 08:24:55;;;;;;;1.57;1.30;;;4.90;89.90;;;;;;5027730;28;20490;-72
2022/03/05 08:27:21;;;;;;;1.50;1.30;;;5.00;88.70;;;;;;5026521;28;20459;-73
2022/03/05 08:29:48;;;;;;;1.60;1.50;;;5.10;88.80;;;;;;5026617;28;20487;-71
2022/03/05 08:32:15;;;;;;;1.60;1.40;;;5.10;88.50;;;;;;5026914;28;20463;-77
2022/03/05 08:34:42;;;;;;;1.50;1.30;;;5.20;88.30;;;;;;5027626;28;20823;-75
2022/03/05 08:37:10;;;;;;;1.53;1.30;;;5.30;88.00;;;;;;5027245;28;20471;-74
2022/03/05 08:39:36;;;;;;;1.60;1.30;;;5.30;87.80;;;;;;5026753;28;20467;-74
2022/03/05 08:42:04;;;;;;;1.57;1.30;;;5.20;87.40;;;;;;5027845;28;20836;-75
2022/03/05 08:44:31;;;;;;;1.50;1.30;;;5.30;87.20;;;;;;5026393;28;20463;-74
2022/03/05 08:46:57;;;;;;;1.70;1.60;;;5.40;87.50;;;;;;5025714;28;20463;-73
2022/03/05 08:49:24;;;;;;;3.63;3.30;;;5.60;87.30;;;;;;5024841;28;20483;-74
2022/03/05 08:51:51;;;;;;;1.50;1.30;;;5.80;86.40;;;;;;5026420;28;20486;-73
2022/03/05 08:54:20;;;;;;;1.57;1.30;;;5.80;85.70;;;;;;5026392;28;20494;-75
2022/03/05 08:56:46;;;;;;;1.60;1.40;;;5.90;85.90;;;;;;5025664;28;20927;-72
2022/03/05 08:59:14;;;;;;;3.03;2.83;;;6.10;86.20;;;;;;5019990;28;20459;-76
2022/03/05 09:01:41;;;;;;;1.60;1.40;;;6.30;84.80;;;;;;5030676;28;20557;-73
2022/03/05 09:04:08;;;;;;;1.50;1.30;;;6.30;84.40;;;;;;5027485;28;20486;-74
2022/03/05 09:06:34;;;;;;;1.57;1.40;;;6.40;84.40;;;;;;5023621;28;20963;-73
2022/03/05 09:09:01;;;;;;;1.57;1.40;;;6.50;84.90;;;;;;5028970;28;20991;-74
2022/03/05 09:11:29;;;;;;;1.50;1.30;;;6.70;84.20;;;;;;5027404;28;20459;-75
2022/03/05 09:13:56;;;;;;;1.50;1.20;;;6.80;83.50;;;;;;5028874;28;20487;-74
2022/03/05 09:16:23;;;;;;;1.50;1.20;;;6.90;83.40;;;;;;5015602;28;20471;-72
2022/03/05 09:18:50;;;;;;;1.53;1.20;;;7.00;82.40;;;;;;5021263;28;20464;-76
2022/03/05 09:21:17;;;;;;;2.13;1.93;;;7.20;82.10;;;;;;5019391;28;20858;-74
2022/03/05 09:23:44;;;;;;;1.97;1.77;;;7.30;82.00;;;;;;5023763;28;20659;-75
2022/03/05 09:26:10;;;;;;;1.50;1.20;;;7.40;81.80;;;;;;5023072;28;20478;-71
2022/03/05 09:28:39;;;;;;;2.37;2.17;;;7.50;81.60;;;;;;5028037;28;20479;-74
2022/03/05 09:31:05;;;;;;;1.50;1.23;;;7.50;80.90;;;;;;5025104;28;20474;-74
2022/03/05 09:33:32;;;;;;;1.53;1.20;;;7.60;80.70;;;;;;5022529;28;20494;-73
2022/03/05 09:35:59;;;;;;;1.50;1.37;;;7.70;80.80;;;;;;5026783;28;20459;-73
2022/03/05 09:38:26;;;;;;;1.60;1.40;;;7.70;80.50;;;;;;5021768;28;20470;-72
2022/03/05 09:40:53;;;;;;;1.50;1.20;;;7.90;80.40;;;;;;5019631;28;21090;-72
2022/03/05 09:43:20;;;;;;;1.50;1.20;;;8.00;79.70;;;;;;5026096;28;20899;-70
2022/03/05 09:45:49;;;;;;;1.50;1.30;;;7.90;79.00;;;;;;5017035;28;20479;-73
2022/03/05 09:48:17;;;;;;;1.80;1.40;;;7.90;79.10;;;;;;5021524;28;20735;-72
2022/03/05 09:50:44;;;;;;;1.60;1.40;;;7.80;79.80;;;;;;5023731;28;20463;-72
2022/03/05 09:53:11;;;;;;;1.50;1.20;;;7.70;79.50;;;;;;4997206;28;20869;-72
2022/03/05 09:55:38;;;;;;;1.60;1.43;;;7.70;79.20;;;;;;5023717;28;20459;-76
2022/03/05 09:58:05;;;;;;;1.50;1.20;;;7.60;79.90;;;;;;5023156;28;20495;-77
2022/03/05 10:00:32;;;;;;;1.60;1.50;;;7.70;80.10;;;;;;5024933;28;20459;-71
2022/03/05 10:03:00;;;;;;;1.53;1.30;;;7.90;79.60;;;;;;5024656;28;20495;-71
2022/03/05 10:05:28;;;;;;;1.50;1.10;;;8.00;79.00;;;;;;5022206;28;20525;-71
2022/03/05 10:08:07;;;;;;;1.50;1.20;;;8.10;78.80;;;;;;5024114;28;20456;-72
2022/03/05 10:10:48;;;;;;;1.50;1.10;;;8.10;78.60;;;;;;5024444;28;20494;-72
2022/03/05 10:13:20;;;;;;;1.50;1.20;;;8.30;79.00;;;;;;5021167;28;20510;-74
2022/03/05 10:15:48;;;;;;;1.50;1.10;;;8.40;78.00;;;;;;5021497;28;20474;-71
2022/03/05 10:18:16;;;;;;;1.50;1.40;;;8.60;78.30;;;;;;5020562;28;20471;-73
2022/03/05 10:20:48;;;;;;;1.50;1.10;;;8.60;76.80;;;;;;5022245;28;20469;-73
2022/03/05 10:23:15;;;;;;;1.50;1.10;;;8.70;77.20;;;;;;4998817;28;20487;-74
2022/03/05 10:25:44;;;;;;;1.50;1.10;;;8.80;77.50;;;;;;5023161;28;20475;-75
2022/03/05 10:28:13;;;;;;;1.50;1.20;;;8.90;77.70;;;;;;5022947;28;20467;-76
2022/03/05 10:30:42;;;;;;;1.50;1.20;;;9.10;76.60;;;;;;5022071;28;20487;-72
2022/03/05 10:33:22;;;;;;;1.50;1.10;;;9.20;75.90;;;;;;5024238;28;20494;-73
2022/03/05 10:35:51;;;;;;;1.50;1.30;;;9.40;75.50;;;;;;5010302;28;20463;-75
2022/03/05 10:38:18;;;;;;;1.50;1.30;;;9.60;75.30;;;;;;5021328;28;20464;-73
2022/03/05 10:40:54;;;;;;;1.50;1.20;;;9.70;74.60;;;;;;5025169;28;20460;-72
2022/03/05 10:43:21;;;;;;;1.50;1.27;;;9.80;74.50;;;;;;5020353;28;20494;-72
2022/03/05 10:45:52;;;;;;;2.43;2.23;;;9.80;75.10;;;;;;5023171;28;20995;-70
2022/03/05 10:48:24;;;;;;;1.50;1.23;;;9.90;73.90;;;;;;5018759;28;20478;-72
2022/03/05 10:50:58;;;;;;;1.60;1.40;;;10.00;73.90;;;;;;5021523;28;20498;-70
2022/03/05 10:53:42;;;;;;;1.50;1.30;;;10.00;73.90;;;;;;5019471;28;20483;-72
2022/03/05 10:56:27;;;;;;;1.60;1.30;;;10.00;73.60;;;;;;5021855;28;20474;-72
2022/03/05 10:59:02;;;;;;;1.50;1.30;;;10.10;72.70;;;;;;5021095;28;20468;-72
2022/03/05 11:01:30;;;;;;;2.20;1.67;;;10.20;72.40;;;;;;5018350;28;20562;-73
2022/03/05 11:03:58;;;;;;;1.50;1.20;;;10.40;71.90;;;;;;5022243;28;20514;-71
2022/03/05 11:06:27;;;;;;;2.57;2.37;;;10.40;71.10;;;;;;5021115;28;20468;-71
2022/03/05 11:08:55;;;;;;;2.13;1.93;;;10.40;71.80;;;;;;5021609;28;20478;-71
2022/03/05 11:11:22;;;;;;;1.50;1.10;;;10.50;71.10;;;;;;5020769;28;20498;-70
2022/03/05 11:13:50;;;;;;;2.03;1.90;;;10.50;70.50;;;;;;5022886;28;20522;-70
2022/03/05 11:16:17;;;;;;;1.50;1.10;;;10.60;70.80;;;;;;5023787;28;20478;-71
2022/03/05 11:18:44;;;;;;;3.00;2.70;;;10.60;69.80;;;;;;5024847;28;20474;-73
2022/03/05 11:21:12;;;;;;;1.63;1.40;;;10.80;70.00;;;;;;5020142;28;20506;-73
2022/03/05 11:23:42;;;;;;;1.50;1.10;;;11.00;69.60;;;;;;5017583;28;20530;-73
2022/03/05 11:26:11;;;;;;;1.50;1.00;;;11.20;69.80;;;;;;5009275;28;20893;-71
2022/03/05 11:28:41;;;;;;;2.07;1.97;;;11.30;68.20;;;;;;5023770;28;20463;-72
2022/03/05 11:31:19;;;;;;;1.50;1.23;;;11.30;67.60;;;;;;5020543;28;20540;-71
2022/03/05 11:33:47;;;;;;;1.50;1.20;;;11.30;68.00;;;;;;5022394;28;20479;-72
2022/03/05 11:36:28;;;;;;;1.50;1.10;;;11.40;67.00;;;;;;5021106;28;20475;-72
2022/03/05 11:39:09;;;;;;;1.50;1.00;;;11.60;67.10;;;;;;5018900;28;20474;-72
2022/03/05 11:41:56;;;;;;;1.50;1.10;;;11.80;67.00;;;;;;5020170;28;20671;-72
2022/03/05 11:44:25;;;;;;;1.50;1.10;;;12.00;67.40;;;;;;5021842;28;20479;-71
2022/03/05 11:47:23;;;;;;;1.50;1.10;;;11.90;66.00;;;;;;5023902;28;20474;-71
2022/03/05 11:50:18;;;;;;;1.50;1.13;;;11.80;66.40;;;;;;5020098;28;20487;-71
2022/03/05 11:53:15;;;;;;;2.37;2.17;;;11.70;65.20;;;;;;5021099;28;20493;-70
2022/03/05 11:55:44;;;;;;;1.50;1.00;;;11.90;66.60;;;;;;5022150;28;20971;-70
2022/03/05 11:58:33;;;;;;;1.50;0.93;;;12.10;65.90;;;;;;5021175;28;20580;-69
2022/03/05 12:01:36;;;;;;;1.50;1.10;;;11.90;64.50;;;;;;5017643;28;21030;-70
2022/03/05 12:04:22;;;;;;;1.50;1.10;;;12.00;65.10;;;;;;5014689;28;20502;-71
2022/03/05 12:06:52;;;;;;;1.50;1.20;;;12.10;64.90;;;;;;5019484;28;20473;-71
2022/03/05 12:09:43;;;;;;;1.50;1.10;;;11.90;64.90;;;;;;5018820;28;20490;-70
2022/03/05 12:12:14;;;;;;;1.50;1.07;;;12.00;65.40;;;;;;5009870;28;20505;-70
2022/03/05 12:15:13;;;;;;;1.50;1.20;;;12.30;63.60;;;;;;5021226;28;20474;-71
2022/03/05 12:17:58;;;;;;;1.80;1.70;;;12.30;64.90;;;;;;5020637;28;20502;-72
2022/03/05 12:20:29;;;;;;;1.50;1.10;;;12.40;64.90;;;;;;5021497;28;20463;-71
2022/03/05 12:22:58;;;;;;;1.50;1.10;;;12.50;64.80;;;;;;5027969;28;20503;-71
2022/03/05 12:25:26;;;;;;;1.50;1.00;;;12.40;61.80;;;;;;5025278;28;20865;-71
2022/03/05 12:27:55;;;;;;;1.50;1.10;;;12.40;60.80;;;;;;5019966;28;20959;-72
2022/03/05 12:30:24;;;;;;;1.50;1.10;;;12.50;62.80;;;;;;5020604;28;20503;-72
2022/03/05 12:32:53;;;;;;;1.50;1.27;;;12.40;63.10;;;;;;5024410;28;20498;-71
2022/03/05 12:35:21;;;;;;;2.47;2.13;;;12.50;64.10;;;;;;5025163;28;20922;-71
2022/03/05 12:37:49;;;;;;;1.43;1.00;;;12.50;62.20;;;;;;5012758;28;20478;-71
2022/03/05 12:40:16;;;;;;;5.73;5.03;;;12.40;60.50;;;;;;5024019;28;20466;-71
2022/03/05 12:42:45;;;;;;;1.50;1.40;;;12.50;61.90;;;;;;5024226;28;20490;-70
2022/03/05 12:45:24;;;;;;;1.50;1.10;;;12.80;61.10;;;;;;5025566;28;20503;-71
2022/03/05 12:47:51;;;;;;;1.50;1.00;;;12.70;61.60;;;;;;5025239;28;20462;-71
2022/03/05 12:50:26;;;;;;;1.50;1.00;;;12.80;62.30;;;;;;5017722;28;20497;-69
2022/03/05 12:53:02;;;;;;;1.70;1.43;;;12.80;60.70;;;;;;4995341;28;20498;-70
2022/03/05 12:55:30;;;;;;;1.50;1.20;;;12.60;60.60;;;;;;5020929;28;20467;-70
2022/03/05 12:58:13;;;;;;;1.50;1.03;;;12.50;61.70;;;;;;5022162;28;20854;-71
2022/03/05 13:00:42;;;;;;;1.50;1.10;;;12.60;61.30;;;;;;5021921;28;20497;-71
2022/03/05 13:03:11;;;;;;;1.50;1.20;;;12.50;61.40;;;;;;5025775;28;20774;-72
2022/03/05 13:05:39;;;;;;;1.50;1.33;;;12.50;61.80;;;;;;5027830;28;20486;-71